sensor_id;sensor_type;location;lat;lon;timestamp;P1;durP1;ratioP1;P2;durP2;ratioP2
57067;SDS011;43391;47.448;18.904;2023-09-19T00:00:00;19.35;;;10.07;;
57067;SDS011;43391;47.448;18.904;2023-09-19T00:02:26;18.33;;;9.43;;
57067;SDS011;43391;47.448;18.904;2023-09-19T00:04:51;21.20;;;10.27;;
57067;SDS011;43391;47.448;18.904;2023-09-19T00:07:17;17.25;;;10.20;;
57067;SDS011;43391;47.448;18.904;2023-09-19T00:09:42;14.45;;;9.75;;
57067;SDS011;43391;47.448;18.904;2023-09-19T00:12:09;18.63;;;11.30;;
57067;SDS011;43391;47.448;18.904;2023-09-19T00:14:34;19.65;;;9.82;;
57067;SDS011;43391;47.448;18.904;2023-09-19T00:17:01;20.45;;;10.13;;
57067;SDS011;43391;47.448;18.904;2023-09-19T00:19:33;22.70;;;10.55;;
57067;SDS011;43391;47.448;18.904;2023-09-19T00:21:58;12.25;;;9.07;;
57067;SDS011;43391;47.448;18.904;2023-09-19T00:24:24;16.50;;;10.60;;
57067;SDS011;43391;47.448;18.904;2023-09-19T00:26:49;16.85;;;9.77;;
57067;SDS011;43391;47.448;18.904;2023-09-19T00:29:15;21.40;;;10.52;;
57067;SDS011;43391;47.448;18.904;2023-09-19T00:31:44;19.50;;;11.45;;
57067;SDS011;43391;47.448;18.904;2023-09-19T00:34:10;20.80;;;11.65;;
57067;SDS011;43391;47.448;18.904;2023-09-19T00:36:38;19.52;;;11.70;;
57067;SDS011;43391;47.448;18.904;2023-09-19T00:39:05;28.00;;;12.38;;
57067;SDS011;43391;47.448;18.904;2023-09-19T00:41:34;24.17;;;12.65;;
57067;SDS011;43391;47.448;18.904;2023-09-19T00:44:03;22.55;;;11.77;;
57067;SDS011;43391;47.448;18.904;2023-09-19T00:46:29;17.75;;;12.35;;
57067;SDS011;43391;47.448;18.904;2023-09-19T00:48:55;19.38;;;12.10;;
57067;SDS011;43391;47.448;18.904;2023-09-19T00:51:22;22.23;;;12.15;;
57067;SDS011;43391;47.448;18.904;2023-09-19T00:53:48;22.10;;;12.38;;
57067;SDS011;43391;47.448;18.904;2023-09-19T00:56:14;21.73;;;12.75;;
57067;SDS011;43391;47.448;18.904;2023-09-19T00:58:43;21.00;;;12.13;;
57067;SDS011;43391;47.448;18.904;2023-09-19T01:01:09;17.35;;;11.98;;
57067;SDS011;43391;47.448;18.904;2023-09-19T01:03:36;22.63;;;12.32;;
57067;SDS011;43391;47.448;18.904;2023-09-19T01:06:02;17.90;;;13.25;;
57067;SDS011;43391;47.448;18.904;2023-09-19T01:08:28;25.27;;;12.93;;
57067;SDS011;43391;47.448;18.904;2023-09-19T01:11:11;74.30;;;32.05;;
57067;SDS011;43391;47.448;18.904;2023-09-19T01:16:31;22.40;;;13.20;;
57067;SDS011;43391;47.448;18.904;2023-09-19T01:21:49;17.80;;;13.50;;
57067;SDS011;43391;47.448;18.904;2023-09-19T01:27:13;25.30;;;12.98;;
57067;SDS011;43391;47.448;18.904;2023-09-19T01:29:50;26.25;;;14.30;;
57067;SDS011;43391;47.448;18.904;2023-09-19T01:32:17;24.45;;;14.40;;
57067;SDS011;43391;47.448;18.904;2023-09-19T01:34:48;23.70;;;14.50;;
57067;SDS011;43391;47.448;18.904;2023-09-19T01:37:18;25.13;;;13.93;;
57067;SDS011;43391;47.448;18.904;2023-09-19T01:39:49;21.80;;;13.85;;
57067;SDS011;43391;47.448;18.904;2023-09-19T01:42:28;26.63;;;14.40;;
57067;SDS011;43391;47.448;18.904;2023-09-19T01:47:50;20.15;;;14.40;;
57067;SDS011;43391;47.448;18.904;2023-09-19T01:50:31;24.27;;;15.10;;
57067;SDS011;43391;47.448;18.904;2023-09-19T01:53:07;29.02;;;14.38;;
57067;SDS011;43391;47.448;18.904;2023-09-19T01:55:41;27.88;;;15.27;;
57067;SDS011;43391;47.448;18.904;2023-09-19T01:58:16;23.73;;;13.82;;
57067;SDS011;43391;47.448;18.904;2023-09-19T02:00:47;28.55;;;14.40;;
57067;SDS011;43391;47.448;18.904;2023-09-19T02:03:16;28.40;;;16.02;;
57067;SDS011;43391;47.448;18.904;2023-09-19T02:05:47;33.90;;;15.73;;
57067;SDS011;43391;47.448;18.904;2023-09-19T02:08:16;26.08;;;15.93;;
57067;SDS011;43391;47.448;18.904;2023-09-19T02:10:43;25.67;;;15.20;;
57067;SDS011;43391;47.448;18.904;2023-09-19T02:13:14;23.60;;;15.32;;
57067;SDS011;43391;47.448;18.904;2023-09-19T02:15:44;23.08;;;15.13;;
57067;SDS011;43391;47.448;18.904;2023-09-19T02:18:10;26.35;;;14.35;;
57067;SDS011;43391;47.448;18.904;2023-09-19T02:20:37;28.48;;;15.63;;
57067;SDS011;43391;47.448;18.904;2023-09-19T02:23:02;25.33;;;15.75;;
57067;SDS011;43391;47.448;18.904;2023-09-19T02:25:28;25.10;;;15.35;;
57067;SDS011;43391;47.448;18.904;2023-09-19T02:27:54;29.52;;;16.55;;
57067;SDS011;43391;47.448;18.904;2023-09-19T02:30:19;21.98;;;14.65;;
57067;SDS011;43391;47.448;18.904;2023-09-19T02:32:50;21.55;;;15.40;;
57067;SDS011;43391;47.448;18.904;2023-09-19T02:35:16;24.63;;;15.25;;
57067;SDS011;43391;47.448;18.904;2023-09-19T02:37:44;25.75;;;15.70;;
57067;SDS011;43391;47.448;18.904;2023-09-19T02:40:10;21.38;;;14.90;;
57067;SDS011;43391;47.448;18.904;2023-09-19T02:42:46;23.85;;;16.48;;
57067;SDS011;43391;47.448;18.904;2023-09-19T02:45:18;21.92;;;15.20;;
57067;SDS011;43391;47.448;18.904;2023-09-19T02:47:44;25.15;;;15.25;;
57067;SDS011;43391;47.448;18.904;2023-09-19T02:50:11;26.48;;;15.80;;
57067;SDS011;43391;47.448;18.904;2023-09-19T02:52:38;21.77;;;14.63;;
57067;SDS011;43391;47.448;18.904;2023-09-19T02:55:06;22.90;;;14.93;;
57067;SDS011;43391;47.448;18.904;2023-09-19T02:57:32;26.27;;;15.38;;
57067;SDS011;43391;47.448;18.904;2023-09-19T02:59:58;26.20;;;16.08;;
57067;SDS011;43391;47.448;18.904;2023-09-19T03:02:24;22.15;;;14.60;;
57067;SDS011;43391;47.448;18.904;2023-09-19T03:04:49;26.55;;;16.45;;
57067;SDS011;43391;47.448;18.904;2023-09-19T03:07:16;25.17;;;16.00;;
57067;SDS011;43391;47.448;18.904;2023-09-19T03:09:42;24.73;;;15.52;;
57067;SDS011;43391;47.448;18.904;2023-09-19T03:12:08;28.80;;;16.23;;
57067;SDS011;43391;47.448;18.904;2023-09-19T03:14:33;22.95;;;15.65;;
57067;SDS011;43391;47.448;18.904;2023-09-19T03:17:00;23.60;;;15.88;;
57067;SDS011;43391;47.448;18.904;2023-09-19T03:19:26;35.28;;;16.10;;
57067;SDS011;43391;47.448;18.904;2023-09-19T03:21:52;25.50;;;15.38;;
57067;SDS011;43391;47.448;18.904;2023-09-19T03:24:18;29.73;;;15.90;;
57067;SDS011;43391;47.448;18.904;2023-09-19T03:26:44;24.45;;;15.25;;
57067;SDS011;43391;47.448;18.904;2023-09-19T03:29:10;25.98;;;16.13;;
57067;SDS011;43391;47.448;18.904;2023-09-19T03:31:35;24.05;;;15.15;;
57067;SDS011;43391;47.448;18.904;2023-09-19T03:34:04;23.00;;;15.48;;
57067;SDS011;43391;47.448;18.904;2023-09-19T03:36:29;22.77;;;15.10;;
57067;SDS011;43391;47.448;18.904;2023-09-19T03:38:55;21.08;;;14.73;;
57067;SDS011;43391;47.448;18.904;2023-09-19T03:41:20;22.50;;;14.50;;
57067;SDS011;43391;47.448;18.904;2023-09-19T03:43:46;26.45;;;16.30;;
57067;SDS011;43391;47.448;18.904;2023-09-19T03:46:11;28.50;;;16.33;;
57067;SDS011;43391;47.448;18.904;2023-09-19T03:48:40;19.85;;;14.38;;
57067;SDS011;43391;47.448;18.904;2023-09-19T03:51:05;21.60;;;15.88;;
57067;SDS011;43391;47.448;18.904;2023-09-19T03:53:30;23.17;;;16.10;;
57067;SDS011;43391;47.448;18.904;2023-09-19T03:55:56;31.63;;;16.13;;
57067;SDS011;43391;47.448;18.904;2023-09-19T03:58:22;22.83;;;15.70;;
57067;SDS011;43391;47.448;18.904;2023-09-19T04:00:47;24.63;;;15.10;;
57067;SDS011;43391;47.448;18.904;2023-09-19T04:03:14;28.92;;;16.42;;
57067;SDS011;43391;47.448;18.904;2023-09-19T04:05:45;32.38;;;16.88;;
57067;SDS011;43391;47.448;18.904;2023-09-19T04:08:12;25.20;;;15.23;;
57067;SDS011;43391;47.448;18.904;2023-09-19T04:10:38;24.00;;;17.05;;
57067;SDS011;43391;47.448;18.904;2023-09-19T04:13:03;26.33;;;16.40;;
57067;SDS011;43391;47.448;18.904;2023-09-19T04:15:29;28.38;;;16.42;;
57067;SDS011;43391;47.448;18.904;2023-09-19T04:17:54;24.92;;;16.30;;
57067;SDS011;43391;47.448;18.904;2023-09-19T04:20:20;23.88;;;15.20;;
57067;SDS011;43391;47.448;18.904;2023-09-19T04:22:47;25.88;;;12.55;;
57067;SDS011;43391;47.448;18.904;2023-09-19T04:25:12;17.67;;;10.50;;
57067;SDS011;43391;47.448;18.904;2023-09-19T04:27:38;19.02;;;7.72;;
57067;SDS011;43391;47.448;18.904;2023-09-19T04:30:04;15.77;;;5.97;;
57067;SDS011;43391;47.448;18.904;2023-09-19T04:32:36;8.95;;;5.38;;
57067;SDS011;43391;47.448;18.904;2023-09-19T04:35:04;9.20;;;4.25;;
57067;SDS011;43391;47.448;18.904;2023-09-19T04:37:34;6.53;;;3.50;;
57067;SDS011;43391;47.448;18.904;2023-09-19T04:40:05;10.85;;;3.13;;
57067;SDS011;43391;47.448;18.904;2023-09-19T04:42:37;6.45;;;3.15;;
57067;SDS011;43391;47.448;18.904;2023-09-19T04:45:02;9.15;;;2.67;;
57067;SDS011;43391;47.448;18.904;2023-09-19T04:47:29;6.20;;;2.05;;
57067;SDS011;43391;47.448;18.904;2023-09-19T04:49:55;5.65;;;2.33;;
57067;SDS011;43391;47.448;18.904;2023-09-19T04:52:21;5.00;;;2.42;;
57067;SDS011;43391;47.448;18.904;2023-09-19T04:54:47;4.70;;;2.38;;
57067;SDS011;43391;47.448;18.904;2023-09-19T04:57:13;5.50;;;2.10;;
57067;SDS011;43391;47.448;18.904;2023-09-19T04:59:39;3.00;;;2.00;;
57067;SDS011;43391;47.448;18.904;2023-09-19T05:02:06;7.28;;;2.25;;
57067;SDS011;43391;47.448;18.904;2023-09-19T05:04:33;5.60;;;2.10;;
57067;SDS011;43391;47.448;18.904;2023-09-19T05:06:58;1.77;;;1.30;;
57067;SDS011;43391;47.448;18.904;2023-09-19T05:09:26;2.17;;;1.70;;
57067;SDS011;43391;47.448;18.904;2023-09-19T05:11:51;4.05;;;1.50;;
57067;SDS011;43391;47.448;18.904;2023-09-19T05:14:17;4.57;;;2.08;;
57067;SDS011;43391;47.448;18.904;2023-09-19T05:16:44;5.18;;;1.65;;
57067;SDS011;43391;47.448;18.904;2023-09-19T05:19:09;3.67;;;1.50;;
57067;SDS011;43391;47.448;18.904;2023-09-19T05:21:36;5.13;;;1.60;;
57067;SDS011;43391;47.448;18.904;2023-09-19T05:24:04;5.22;;;1.63;;
57067;SDS011;43391;47.448;18.904;2023-09-19T05:26:32;5.13;;;1.70;;
57067;SDS011;43391;47.448;18.904;2023-09-19T05:28:57;10.65;;;5.47;;
57067;SDS011;43391;47.448;18.904;2023-09-19T05:31:23;6.88;;;1.50;;
57067;SDS011;43391;47.448;18.904;2023-09-19T05:33:49;1.80;;;1.33;;
57067;SDS011;43391;47.448;18.904;2023-09-19T05:36:15;3.00;;;1.63;;
57067;SDS011;43391;47.448;18.904;2023-09-19T05:38:42;1.58;;;1.48;;
57067;SDS011;43391;47.448;18.904;2023-09-19T05:41:09;4.90;;;1.75;;
57067;SDS011;43391;47.448;18.904;2023-09-19T05:43:38;2.42;;;1.27;;
57067;SDS011;43391;47.448;18.904;2023-09-19T05:46:06;5.22;;;1.60;;
57067;SDS011;43391;47.448;18.904;2023-09-19T05:48:33;3.70;;;1.52;;
57067;SDS011;43391;47.448;18.904;2023-09-19T05:50:59;3.55;;;1.70;;
57067;SDS011;43391;47.448;18.904;2023-09-19T05:53:26;3.03;;;1.42;;
57067;SDS011;43391;47.448;18.904;2023-09-19T05:55:52;1.63;;;1.38;;
57067;SDS011;43391;47.448;18.904;2023-09-19T05:58:18;5.55;;;1.23;;
57067;SDS011;43391;47.448;18.904;2023-09-19T06:00:45;3.70;;;1.30;;
57067;SDS011;43391;47.448;18.904;2023-09-19T06:03:12;3.17;;;1.65;;
57067;SDS011;43391;47.448;18.904;2023-09-19T06:05:39;2.53;;;1.45;;
57067;SDS011;43391;47.448;18.904;2023-09-19T06:08:06;3.45;;;1.92;;
57067;SDS011;43391;47.448;18.904;2023-09-19T06:10:33;10.02;;;4.97;;
57067;SDS011;43391;47.448;18.904;2023-09-19T06:13:00;17.17;;;7.95;;
57067;SDS011;43391;47.448;18.904;2023-09-19T06:15:29;16.88;;;10.20;;
57067;SDS011;43391;47.448;18.904;2023-09-19T06:17:57;16.63;;;9.85;;
57067;SDS011;43391;47.448;18.904;2023-09-19T06:20:24;10.98;;;7.50;;
57067;SDS011;43391;47.448;18.904;2023-09-19T06:22:51;12.52;;;5.47;;
57067;SDS011;43391;47.448;18.904;2023-09-19T06:25:17;15.80;;;10.23;;
57067;SDS011;43391;47.448;18.904;2023-09-19T06:27:51;10.88;;;6.20;;
57067;SDS011;43391;47.448;18.904;2023-09-19T06:30:19;9.25;;;5.40;;
57067;SDS011;43391;47.448;18.904;2023-09-19T06:32:45;13.65;;;7.03;;
57067;SDS011;43391;47.448;18.904;2023-09-19T06:35:11;4.53;;;2.13;;
57067;SDS011;43391;47.448;18.904;2023-09-19T06:37:38;3.30;;;2.00;;
57067;SDS011;43391;47.448;18.904;2023-09-19T06:42:34;18.55;;;9.38;;
57067;SDS011;43391;47.448;18.904;2023-09-19T06:45:02;3.33;;;1.58;;
57067;SDS011;43391;47.448;18.904;2023-09-19T06:47:29;3.33;;;1.70;;
57067;SDS011;43391;47.448;18.904;2023-09-19T06:49:55;2.75;;;1.67;;
57067;SDS011;43391;47.448;18.904;2023-09-19T06:52:20;2.05;;;1.55;;
57067;SDS011;43391;47.448;18.904;2023-09-19T06:54:46;3.65;;;1.77;;
57067;SDS011;43391;47.448;18.904;2023-09-19T06:57:12;3.58;;;1.92;;
57067;SDS011;43391;47.448;18.904;2023-09-19T06:59:38;4.45;;;1.55;;
57067;SDS011;43391;47.448;18.904;2023-09-19T07:02:04;1.92;;;1.63;;
57067;SDS011;43391;47.448;18.904;2023-09-19T07:04:31;2.00;;;1.50;;
57067;SDS011;43391;47.448;18.904;2023-09-19T07:06:57;3.88;;;1.85;;
57067;SDS011;43391;47.448;18.904;2023-09-19T07:09:23;4.10;;;1.90;;
57067;SDS011;43391;47.448;18.904;2023-09-19T07:11:48;2.08;;;1.88;;
57067;SDS011;43391;47.448;18.904;2023-09-19T07:14:16;4.28;;;1.75;;
57067;SDS011;43391;47.448;18.904;2023-09-19T07:16:41;3.85;;;2.15;;
57067;SDS011;43391;47.448;18.904;2023-09-19T07:19:09;4.57;;;2.17;;
57067;SDS011;43391;47.448;18.904;2023-09-19T07:21:35;5.38;;;2.55;;
57067;SDS011;43391;47.448;18.904;2023-09-19T07:24:04;6.35;;;3.90;;
57067;SDS011;43391;47.448;18.904;2023-09-19T07:26:29;7.05;;;3.67;;
57067;SDS011;43391;47.448;18.904;2023-09-19T07:28:56;6.63;;;3.28;;
57067;SDS011;43391;47.448;18.904;2023-09-19T07:31:22;4.15;;;2.45;;
57067;SDS011;43391;47.448;18.904;2023-09-19T07:33:48;9.10;;;4.57;;
57067;SDS011;43391;47.448;18.904;2023-09-19T07:36:14;6.97;;;4.53;;
57067;SDS011;43391;47.448;18.904;2023-09-19T07:38:40;8.25;;;5.38;;
57067;SDS011;43391;47.448;18.904;2023-09-19T07:41:06;13.90;;;5.68;;
57067;SDS011;43391;47.448;18.904;2023-09-19T07:43:34;8.77;;;5.10;;
57067;SDS011;43391;47.448;18.904;2023-09-19T07:46:04;18.10;;;8.38;;
57067;SDS011;43391;47.448;18.904;2023-09-19T07:48:31;11.10;;;5.70;;
57067;SDS011;43391;47.448;18.904;2023-09-19T07:51:01;9.43;;;4.75;;
57067;SDS011;43391;47.448;18.904;2023-09-19T07:53:31;12.13;;;6.25;;
57067;SDS011;43391;47.448;18.904;2023-09-19T07:58:29;20.25;;;8.15;;
57067;SDS011;43391;47.448;18.904;2023-09-19T08:00:54;16.10;;;7.53;;
57067;SDS011;43391;47.448;18.904;2023-09-19T08:03:20;15.10;;;6.78;;
57067;SDS011;43391;47.448;18.904;2023-09-19T08:05:45;11.75;;;7.32;;
57067;SDS011;43391;47.448;18.904;2023-09-19T08:08:10;18.48;;;8.98;;
57067;SDS011;43391;47.448;18.904;2023-09-19T08:10:38;12.63;;;7.03;;
57067;SDS011;43391;47.448;18.904;2023-09-19T08:13:07;11.85;;;6.75;;
57067;SDS011;43391;47.448;18.904;2023-09-19T08:15:36;11.52;;;7.43;;
57067;SDS011;43391;47.448;18.904;2023-09-19T08:18:09;11.88;;;7.38;;
57067;SDS011;43391;47.448;18.904;2023-09-19T08:20:37;10.07;;;6.13;;
57067;SDS011;43391;47.448;18.904;2023-09-19T08:23:03;12.15;;;6.40;;
57067;SDS011;43391;47.448;18.904;2023-09-19T08:25:28;21.48;;;8.02;;
57067;SDS011;43391;47.448;18.904;2023-09-19T08:27:54;7.90;;;5.20;;
57067;SDS011;43391;47.448;18.904;2023-09-19T08:30:25;11.65;;;6.57;;
57067;SDS011;43391;47.448;18.904;2023-09-19T08:32:58;8.50;;;5.78;;
57067;SDS011;43391;47.448;18.904;2023-09-19T08:35:25;11.77;;;6.28;;
57067;SDS011;43391;47.448;18.904;2023-09-19T08:37:50;11.48;;;6.55;;
57067;SDS011;43391;47.448;18.904;2023-09-19T08:40:16;9.40;;;6.43;;
57067;SDS011;43391;47.448;18.904;2023-09-19T08:42:49;12.63;;;6.60;;
57067;SDS011;43391;47.448;18.904;2023-09-19T08:45:19;11.70;;;6.18;;
57067;SDS011;43391;47.448;18.904;2023-09-19T08:47:54;16.80;;;7.05;;
57067;SDS011;43391;47.448;18.904;2023-09-19T08:50:26;15.52;;;7.00;;
57067;SDS011;43391;47.448;18.904;2023-09-19T08:52:56;11.40;;;7.03;;
57067;SDS011;43391;47.448;18.904;2023-09-19T08:55:28;13.88;;;7.65;;
57067;SDS011;43391;47.448;18.904;2023-09-19T08:58:01;15.13;;;7.95;;
57067;SDS011;43391;47.448;18.904;2023-09-19T09:00:29;14.93;;;9.23;;
57067;SDS011;43391;47.448;18.904;2023-09-19T09:02:56;15.88;;;8.75;;
57067;SDS011;43391;47.448;18.904;2023-09-19T09:05:23;16.20;;;9.25;;
57067;SDS011;43391;47.448;18.904;2023-09-19T09:07:50;16.33;;;9.95;;
57067;SDS011;43391;47.448;18.904;2023-09-19T09:10:21;16.85;;;11.18;;
57067;SDS011;43391;47.448;18.904;2023-09-19T09:12:57;16.33;;;11.18;;
57067;SDS011;43391;47.448;18.904;2023-09-19T09:15:23;21.45;;;13.38;;
57067;SDS011;43391;47.448;18.904;2023-09-19T09:17:50;24.15;;;14.88;;
57067;SDS011;43391;47.448;18.904;2023-09-19T09:20:18;20.83;;;14.30;;
57067;SDS011;43391;47.448;18.904;2023-09-19T09:22:56;21.42;;;14.77;;
57067;SDS011;43391;47.448;18.904;2023-09-19T09:28:26;13.40;;;9.73;;
57067;SDS011;43391;47.448;18.904;2023-09-19T09:30:53;17.27;;;12.18;;
57067;SDS011;43391;47.448;18.904;2023-09-19T09:33:19;18.60;;;11.63;;
57067;SDS011;43391;47.448;18.904;2023-09-19T09:38:17;16.17;;;11.00;;
57067;SDS011;43391;47.448;18.904;2023-09-19T09:40:49;19.80;;;12.85;;
57067;SDS011;43391;47.448;18.904;2023-09-19T09:43:30;21.73;;;12.07;;
57067;SDS011;43391;47.448;18.904;2023-09-19T09:46:07;18.83;;;12.60;;
57067;SDS011;43391;47.448;18.904;2023-09-19T09:48:46;20.88;;;14.63;;
57067;SDS011;43391;47.448;18.904;2023-09-19T09:51:33;18.38;;;13.60;;
57067;SDS011;43391;47.448;18.904;2023-09-19T09:56:51;21.90;;;14.05;;
57067;SDS011;43391;47.448;18.904;2023-09-19T10:02:35;19.95;;;13.10;;
57067;SDS011;43391;47.448;18.904;2023-09-19T10:05:15;15.15;;;11.25;;
57067;SDS011;43391;47.448;18.904;2023-09-19T10:07:44;14.00;;;10.25;;
57067;SDS011;43391;47.448;18.904;2023-09-19T10:10:37;13.18;;;10.18;;
57067;SDS011;43391;47.448;18.904;2023-09-19T10:13:06;14.32;;;10.88;;
57067;SDS011;43391;47.448;18.904;2023-09-19T10:15:33;13.82;;;10.07;;
57067;SDS011;43391;47.448;18.904;2023-09-19T10:18:01;16.55;;;10.98;;
57067;SDS011;43391;47.448;18.904;2023-09-19T10:20:30;12.20;;;10.07;;
57067;SDS011;43391;47.448;18.904;2023-09-19T10:22:55;13.13;;;10.48;;
57067;SDS011;43391;47.448;18.904;2023-09-19T10:25:26;10.70;;;9.18;;
57067;SDS011;43391;47.448;18.904;2023-09-19T10:27:56;14.13;;;10.60;;
57067;SDS011;43391;47.448;18.904;2023-09-19T10:30:27;10.20;;;8.55;;
57067;SDS011;43391;47.448;18.904;2023-09-19T10:33:02;15.40;;;10.63;;
57067;SDS011;43391;47.448;18.904;2023-09-19T10:35:29;11.35;;;8.70;;
57067;SDS011;43391;47.448;18.904;2023-09-19T10:37:57;14.40;;;10.63;;
57067;SDS011;43391;47.448;18.904;2023-09-19T10:40:25;9.85;;;8.30;;
57067;SDS011;43391;47.448;18.904;2023-09-19T10:42:58;13.45;;;10.30;;
57067;SDS011;43391;47.448;18.904;2023-09-19T10:45:28;14.23;;;9.82;;
57067;SDS011;43391;47.448;18.904;2023-09-19T10:47:56;15.00;;;9.95;;
57067;SDS011;43391;47.448;18.904;2023-09-19T10:50:22;12.00;;;8.52;;
57067;SDS011;43391;47.448;18.904;2023-09-19T10:52:51;12.25;;;8.70;;
57067;SDS011;43391;47.448;18.904;2023-09-19T10:55:29;10.73;;;7.07;;
57067;SDS011;43391;47.448;18.904;2023-09-19T10:57:56;9.88;;;6.78;;
57067;SDS011;43391;47.448;18.904;2023-09-19T11:00:54;6.68;;;5.30;;
57067;SDS011;43391;47.448;18.904;2023-09-19T11:06:11;10.27;;;5.70;;
57067;SDS011;43391;47.448;18.904;2023-09-19T11:09:14;7.45;;;5.22;;
57067;SDS011;43391;47.448;18.904;2023-09-19T11:25:43;3.00;;;2.70;;
57067;SDS011;43391;47.448;18.904;2023-09-19T11:30:42;4.53;;;3.33;;
57067;SDS011;43391;47.448;18.904;2023-09-19T11:36:07;6.28;;;3.38;;
57067;SDS011;43391;47.448;18.904;2023-09-19T11:46:16;8.30;;;3.97;;
57067;SDS011;43391;47.448;18.904;2023-09-19T11:48:43;7.53;;;3.17;;
57067;SDS011;43391;47.448;18.904;2023-09-19T11:51:14;8.18;;;5.25;;
57067;SDS011;43391;47.448;18.904;2023-09-19T11:53:47;6.57;;;3.45;;
57067;SDS011;43391;47.448;18.904;2023-09-19T11:56:21;8.05;;;4.07;;
57067;SDS011;43391;47.448;18.904;2023-09-19T11:58:49;6.18;;;3.10;;
57067;SDS011;43391;47.448;18.904;2023-09-19T12:01:23;8.10;;;3.92;;
57067;SDS011;43391;47.448;18.904;2023-09-19T12:03:55;5.45;;;3.95;;
57067;SDS011;43391;47.448;18.904;2023-09-19T12:06:23;7.43;;;4.97;;
57067;SDS011;43391;47.448;18.904;2023-09-19T12:08:50;15.55;;;10.18;;
57067;SDS011;43391;47.448;18.904;2023-09-19T12:13:46;13.50;;;7.93;;
57067;SDS011;43391;47.448;18.904;2023-09-19T12:18:40;4.05;;;2.65;;
57067;SDS011;43391;47.448;18.904;2023-09-19T12:21:08;8.93;;;4.80;;
57067;SDS011;43391;47.448;18.904;2023-09-19T12:23:37;12.38;;;7.20;;
57067;SDS011;43391;47.448;18.904;2023-09-19T12:26:06;10.30;;;6.25;;
57067;SDS011;43391;47.448;18.904;2023-09-19T12:28:38;13.23;;;5.32;;
57067;SDS011;43391;47.448;18.904;2023-09-19T12:31:07;7.97;;;4.85;;
57067;SDS011;43391;47.448;18.904;2023-09-19T12:33:34;10.48;;;6.40;;
57067;SDS011;43391;47.448;18.904;2023-09-19T12:36:10;8.45;;;5.75;;
57067;SDS011;43391;47.448;18.904;2023-09-19T12:38:47;14.80;;;7.40;;
57067;SDS011;43391;47.448;18.904;2023-09-19T12:41:13;9.50;;;6.47;;
57067;SDS011;43391;47.448;18.904;2023-09-19T12:43:39;12.13;;;6.50;;
57067;SDS011;43391;47.448;18.904;2023-09-19T12:46:07;4.13;;;2.77;;
57067;SDS011;43391;47.448;18.904;2023-09-19T12:48:32;5.38;;;3.13;;
57067;SDS011;43391;47.448;18.904;2023-09-19T12:51:03;6.20;;;2.88;;
57067;SDS011;43391;47.448;18.904;2023-09-19T12:53:41;7.55;;;2.85;;
57067;SDS011;43391;47.448;18.904;2023-09-19T12:56:09;4.95;;;2.67;;
57067;SDS011;43391;47.448;18.904;2023-09-19T13:01:16;5.80;;;2.85;;
57067;SDS011;43391;47.448;18.904;2023-09-19T13:03:41;13.27;;;7.80;;
57067;SDS011;43391;47.448;18.904;2023-09-19T13:06:07;13.32;;;7.88;;
57067;SDS011;43391;47.448;18.904;2023-09-19T13:08:35;17.67;;;7.47;;
57067;SDS011;43391;47.448;18.904;2023-09-19T13:13:35;12.50;;;6.97;;
57067;SDS011;43391;47.448;18.904;2023-09-19T13:16:13;15.30;;;8.95;;
57067;SDS011;43391;47.448;18.904;2023-09-19T13:18:46;16.17;;;7.25;;
57067;SDS011;43391;47.448;18.904;2023-09-19T13:21:16;13.55;;;7.15;;
57067;SDS011;43391;47.448;18.904;2023-09-19T13:24:01;11.90;;;7.60;;
57067;SDS011;43391;47.448;18.904;2023-09-19T13:26:44;16.37;;;11.57;;
57067;SDS011;43391;47.448;18.904;2023-09-19T13:29:10;13.00;;;8.32;;
57067;SDS011;43391;47.448;18.904;2023-09-19T13:31:36;18.05;;;9.93;;
57067;SDS011;43391;47.448;18.904;2023-09-19T13:34:06;15.60;;;9.10;;
57067;SDS011;43391;47.448;18.904;2023-09-19T13:36:32;15.57;;;9.38;;
57067;SDS011;43391;47.448;18.904;2023-09-19T13:38:57;18.63;;;10.05;;
57067;SDS011;43391;47.448;18.904;2023-09-19T13:41:24;14.32;;;9.93;;
57067;SDS011;43391;47.448;18.904;2023-09-19T13:43:49;17.15;;;11.25;;
57067;SDS011;43391;47.448;18.904;2023-09-19T13:46:14;16.15;;;10.98;;
57067;SDS011;43391;47.448;18.904;2023-09-19T13:48:41;17.48;;;12.57;;
57067;SDS011;43391;47.448;18.904;2023-09-19T13:51:07;105.47;;;45.22;;
57067;SDS011;43391;47.448;18.904;2023-09-19T13:53:32;15.85;;;10.07;;
57067;SDS011;43391;47.448;18.904;2023-09-19T13:55:57;16.50;;;11.00;;
57067;SDS011;43391;47.448;18.904;2023-09-19T13:58:23;22.73;;;11.25;;
57067;SDS011;43391;47.448;18.904;2023-09-19T14:00:49;21.55;;;13.57;;
57067;SDS011;43391;47.448;18.904;2023-09-19T14:03:14;15.38;;;10.65;;
57067;SDS011;43391;47.448;18.904;2023-09-19T14:05:40;15.50;;;10.43;;
57067;SDS011;43391;47.448;18.904;2023-09-19T14:08:07;12.85;;;7.28;;
57067;SDS011;43391;47.448;18.904;2023-09-19T14:10:33;4.10;;;3.28;;
57067;SDS011;43391;47.448;18.904;2023-09-19T14:12:59;13.43;;;8.40;;
57067;SDS011;43391;47.448;18.904;2023-09-19T14:15:25;17.58;;;10.57;;
57067;SDS011;43391;47.448;18.904;2023-09-19T14:17:58;13.32;;;8.05;;
57067;SDS011;43391;47.448;18.904;2023-09-19T14:20:25;13.23;;;8.77;;
57067;SDS011;43391;47.448;18.904;2023-09-19T14:22:52;16.92;;;10.73;;
57067;SDS011;43391;47.448;18.904;2023-09-19T14:25:18;15.48;;;9.40;;
57067;SDS011;43391;47.448;18.904;2023-09-19T14:27:43;11.15;;;6.57;;
57067;SDS011;43391;47.448;18.904;2023-09-19T14:30:09;12.25;;;7.03;;
57067;SDS011;43391;47.448;18.904;2023-09-19T14:32:35;9.30;;;5.97;;
57067;SDS011;43391;47.448;18.904;2023-09-19T14:35:01;10.40;;;4.22;;
57067;SDS011;43391;47.448;18.904;2023-09-19T14:37:27;8.85;;;3.63;;
57067;SDS011;43391;47.448;18.904;2023-09-19T14:39:53;12.82;;;7.60;;
57067;SDS011;43391;47.448;18.904;2023-09-19T14:42:19;4.63;;;3.15;;
57067;SDS011;43391;47.448;18.904;2023-09-19T14:44:44;17.20;;;7.03;;
57067;SDS011;43391;47.448;18.904;2023-09-19T14:47:10;10.55;;;6.97;;
57067;SDS011;43391;47.448;18.904;2023-09-19T14:52:05;13.05;;;6.68;;
57067;SDS011;43391;47.448;18.904;2023-09-19T14:54:33;15.55;;;8.90;;
57067;SDS011;43391;47.448;18.904;2023-09-19T14:56:59;10.93;;;7.07;;
57067;SDS011;43391;47.448;18.904;2023-09-19T14:59:33;22.88;;;12.40;;
57067;SDS011;43391;47.448;18.904;2023-09-19T15:02:03;10.98;;;6.63;;
57067;SDS011;43391;47.448;18.904;2023-09-19T15:04:29;13.13;;;7.32;;
57067;SDS011;43391;47.448;18.904;2023-09-19T15:06:54;11.68;;;7.20;;
57067;SDS011;43391;47.448;18.904;2023-09-19T15:09:23;16.42;;;8.30;;
57067;SDS011;43391;47.448;18.904;2023-09-19T15:11:51;16.52;;;8.20;;
57067;SDS011;43391;47.448;18.904;2023-09-19T15:14:18;11.00;;;7.25;;
57067;SDS011;43391;47.448;18.904;2023-09-19T15:16:43;4.28;;;2.60;;
57067;SDS011;43391;47.448;18.904;2023-09-19T15:19:09;6.00;;;2.42;;
57067;SDS011;43391;47.448;18.904;2023-09-19T15:21:35;5.63;;;2.63;;
57067;SDS011;43391;47.448;18.904;2023-09-19T15:24:02;3.78;;;2.67;;
57067;SDS011;43391;47.448;18.904;2023-09-19T15:26:28;4.88;;;2.78;;
57067;SDS011;43391;47.448;18.904;2023-09-19T15:28:55;3.53;;;2.60;;
57067;SDS011;43391;47.448;18.904;2023-09-19T15:31:21;6.95;;;3.35;;
57067;SDS011;43391;47.448;18.904;2023-09-19T15:33:47;5.72;;;3.60;;
57067;SDS011;43391;47.448;18.904;2023-09-19T15:36:13;5.50;;;2.92;;